Time;durP1;ratioP1;P1;durP2;ratioP2;P2;SDS_P1;SDS_P2;PMS_P1;PMS_P2;Temp;Humidity;BMP_temperature;BMP_pressure;BME280_temperature;BME280_humidity;BME280_pressure;Samples;Min_cycle;Max_cycle;Signal;HPM_P1;HPM_P2
2022/12/06 00:00:09;;;;;;;48.17;30.90;;;;;;;10.24;84.92;100304.81;5034282;28;20188;-55
2022/12/06 00:02:36;;;;;;;47.23;29.87;;;;;;;10.19;85.20;100307.22;5050029;28;20203;-55
2022/12/06 00:05:03;;;;;;;55.10;32.57;;;;;;;10.20;85.08;100302.97;5054170;28;20226;-55
2022/12/06 00:07:31;;;;;;;48.57;31.17;;;;;;;10.20;85.71;100308.97;5054177;28;20191;-55
2022/12/06 00:09:58;;;;;;;49.23;31.63;;;;;;;10.15;85.68;100307.09;5053308;28;20199;-55
2022/12/06 00:12:25;;;;;;;48.67;31.37;;;;;;;10.03;86.39;100293.00;5053880;28;20195;-55
2022/12/06 00:14:52;;;;;;;55.10;36.63;;;;;;;10.13;86.56;100304.50;5054022;28;20568;-55
2022/12/06 00:17:19;;;;;;;54.63;36.00;;;;;;;10.11;86.14;100298.38;5052501;28;20689;-55
2022/12/06 00:19:45;;;;;;;55.63;35.13;;;;;;;10.06;85.99;100292.22;5054268;28;20192;-55
2022/12/06 00:22:12;;;;;;;53.77;35.83;;;;;;;10.09;85.71;100292.34;5053718;28;20203;-55
2022/12/06 00:24:41;;;;;;;57.07;36.47;;;;;;;10.10;85.89;100299.22;5053728;28;20206;-55
2022/12/06 00:27:08;;;;;;;52.63;35.57;;;;;;;10.10;86.16;100288.94;5053613;28;20564;-54
2022/12/06 00:29:35;;;;;;;56.37;33.73;;;;;;;10.09;86.14;100298.34;5053341;28;20196;-54
2022/12/06 00:32:02;;;;;;;45.97;29.17;;;;;;;10.06;86.19;100300.81;5053696;28;20192;-55
2022/12/06 00:34:29;;;;;;;47.57;30.53;;;;;;;9.99;86.03;100287.75;5053986;28;20199;-54
2022/12/06 00:36:56;;;;;;;48.97;30.60;;;;;;;10.05;86.08;100288.78;5053552;28;20188;-54
2022/12/06 00:39:22;;;;;;;46.33;29.80;;;;;;;9.97;86.67;100290.25;5053645;28;20207;-54
2022/12/06 00:41:51;;;;;;;50.10;32.20;;;;;;;9.99;86.73;100283.50;5053047;28;20195;-54
2022/12/06 00:44:17;;;;;;;47.13;28.70;;;;;;;10.00;86.23;100276.63;5053361;28;20196;-54
2022/12/06 00:46:44;;;;;;;51.17;32.80;;;;;;;10.01;86.76;100279.28;5052343;28;21015;-54
2022/12/06 00:49:11;;;;;;;44.97;30.33;;;;;;;10.00;86.89;100276.63;5053516;28;20242;-54
2022/12/06 00:51:38;;;;;;;51.13;31.33;;;;;;;9.99;87.28;100270.66;5053532;28;20227;-55
2022/12/06 00:54:06;;;;;;;53.80;33.03;;;;;;;9.98;87.17;100271.47;5053182;28;20184;-55
2022/12/06 00:56:35;;;;;;;53.50;32.67;;;;;;;9.99;87.39;100260.38;5053819;28;20219;-55
2022/12/06 00:59:04;;;;;;;52.80;32.07;;;;;;;9.94;87.83;100261.91;5052861;28;20192;-55
2022/12/06 01:01:34;;;;;;;50.90;31.50;;;;;;;9.70;88.30;100221.78;5053378;28;20192;-55
2022/12/06 01:04:04;;;;;;;54.57;33.70;;;;;;;9.67;88.78;100225.13;5053163;28;20210;-55
2022/12/06 01:06:33;;;;;;;50.13;33.80;;;;;;;9.86;89.08;100249.69;5052838;28;20270;-55
2022/12/06 01:09:02;;;;;;;49.00;32.33;;;;;;;9.83;89.06;100247.03;5052619;28;20195;-55
2022/12/06 01:11:30;;;;;;;49.20;33.00;;;;;;;9.89;88.74;100248.06;5052861;28;20197;-55
2022/12/06 01:13:57;;;;;;;47.67;31.57;;;;;;;9.91;88.64;100243.88;5052865;28;20195;-55
2022/12/06 01:16:27;;;;;;;51.63;32.30;;;;;;;9.93;88.51;100233.66;5049221;28;20249;-55
2022/12/06 01:18:56;;;;;;;53.43;32.27;;;;;;;9.90;88.29;100236.13;5032737;28;20690;-55
2022/12/06 01:21:24;;;;;;;48.53;32.13;;;;;;;9.92;88.28;100225.06;5032682;28;20193;-55
2022/12/06 01:23:53;;;;;;;52.10;32.40;;;;;;;9.94;88.36;100232.84;5032470;28;20669;-55
2022/12/06 01:26:22;;;;;;;52.10;33.73;;;;;;;9.91;88.79;100228.47;5032418;28;20216;-55
2022/12/06 01:28:49;;;;;;;49.73;31.13;;;;;;;9.95;88.97;100227.72;5032649;28;20270;-55
2022/12/06 01:31:17;;;;;;;59.15;39.50;;;;;;;10.02;89.00;100234.81;5031675;28;20447;-54
2022/12/06 01:33:45;;;;;;;51.87;35.33;;;;;;;10.08;88.42;100236.66;5032598;28;20185;-54
2022/12/06 01:36:17;;;;;;;49.77;33.60;;;;;;;10.07;88.11;100230.69;5032682;28;20655;-54
2022/12/06 01:38:44;;;;;;;50.73;33.90;;;;;;;10.09;88.08;100234.16;5032942;28;20189;-54
2022/12/06 01:41:10;;;;;;;51.97;31.90;;;;;;;10.09;88.42;100236.72;5032991;28;20610;-55
2022/12/06 01:43:39;;;;;;;51.00;34.17;;;;;;;10.11;88.22;100241.03;5032324;28;20192;-54
2022/12/06 01:46:20;;;;;;;56.38;38.72;;;;;;;10.07;88.56;100235.81;5031582;28;20947;-54
2022/12/06 01:48:52;;;;;;;56.47;33.70;;;;;;;10.08;88.13;100231.53;5040434;28;20207;-54
2022/12/06 01:51:19;;;;;;;51.20;33.37;;;;;;;10.08;87.81;100236.66;5052456;28;20224;-55
2022/12/06 01:53:50;;;;;;;52.87;33.27;;;;;;;10.08;87.66;100231.53;5051998;28;20199;-54
2022/12/06 01:56:17;;;;;;;49.63;32.60;;;;;;;9.95;88.03;100211.44;5052414;28;20199;-55
2022/12/06 01:58:46;;;;;;;50.77;31.90;;;;;;;10.05;88.25;100224.59;5051536;28;20192;-55
2022/12/06 02:01:14;;;;;;;53.30;32.43;;;;;;;10.04;87.71;100232.28;5047788;28;20204;-55
2022/12/06 02:03:42;;;;;;;54.37;35.37;;;;;;;10.07;87.42;100225.53;5044960;28;20227;-55
2022/12/06 02:06:11;;;;;;;48.20;32.70;;;;;;;10.00;87.78;100222.72;5052011;28;20704;-55
2022/12/06 02:08:38;;;;;;;50.43;32.57;;;;;;;10.00;88.05;100215.91;5051924;28;20197;-55
2022/12/06 02:11:05;;;;;;;54.37;34.70;;;;;;;10.04;88.41;100211.75;5052039;28;20194;-55
2022/12/06 02:13:35;;;;;;;51.93;32.10;;;;;;;10.05;88.22;100213.50;5052016;28;20191;-55
2022/12/06 02:16:11;;;;;;;52.30;34.60;;;;;;;10.09;88.64;100215.31;5051748;28;20200;-55
2022/12/06 02:18:45;;;;;;;53.07;32.83;;;;;;;10.05;88.27;100213.50;5052792;28;20190;-55
2022/12/06 02:21:27;;;;;;;54.30;32.33;;;;;;;10.05;87.79;100204.06;5051877;28;20193;-55
2022/12/06 02:24:43;;;;;;;50.60;32.90;;;;;;;10.02;88.02;100206.56;5052326;28;20196;-55
2022/12/06 02:27:29;;;;;;;51.30;32.67;;;;;;;9.96;88.65;100205.50;5036312;28;20216;-55
2022/12/06 02:30:17;;;;;;;49.07;32.00;;;;;;;9.99;89.22;100209.03;5050833;28;20192;-55
2022/12/06 02:32:50;;;;;;;54.77;32.27;;;;;;;9.99;89.30;100205.59;5051669;28;20554;-55
2022/12/06 02:35:25;;;;;;;48.93;32.80;;;;;;;10.01;89.27;100206.50;5051935;28;20209;-55
2022/12/06 02:37:56;;;;;;;56.60;32.50;;;;;;;9.99;89.98;100209.03;5052145;28;20194;-55
2022/12/06 02:40:28;;;;;;;52.47;32.70;;;;;;;9.98;90.15;100209.84;5051770;28;20200;-55
2022/12/06 02:43:00;;;;;;;57.53;34.13;;;;;;;9.97;90.59;100208.09;5051787;28;20196;-55
2022/12/06 02:45:30;;;;;;;54.37;33.90;;;;;;;9.97;90.16;100205.53;5051472;28;20196;-56
2022/12/06 02:48:02;;;;;;;51.93;33.40;;;;;;;9.99;90.19;100211.63;5048449;28;20200;-55
2022/12/06 02:50:36;;;;;;;53.50;34.53;;;;;;;9.90;89.76;100183.09;5032189;28;20196;-55
2022/12/06 02:53:06;;;;;;;51.73;34.27;;;;;;;10.00;90.09;100210.75;5032023;28;20230;-55
2022/12/06 02:55:34;;;;;;;54.73;36.23;;;;;;;9.98;89.81;100211.53;5031747;28;20189;-55
2022/12/06 02:58:01;;;;;;;57.37;36.80;;;;;;;9.95;89.75;100214.03;5031523;28;20718;-55
2022/12/06 03:00:37;;;;;;;60.53;35.80;;;;;;;9.89;89.57;100207.00;5031742;28;20656;-55
2022/12/06 03:03:36;;;;;;;59.80;34.23;;;;;;;9.89;89.78;100213.81;5031700;28;20200;-55
2022/12/06 03:06:21;;;;;;;58.63;36.47;;;;;;;9.90;89.66;100215.59;5031276;28;20695;-56
2022/12/06 03:08:58;;;;;;;51.00;34.33;;;;;;;9.92;89.28;100219.94;5059131;28;20200;-55
2022/12/06 03:11:29;;;;;;;53.70;33.80;;;;;;;9.92;89.54;100209.66;5072275;28;20254;-55
2022/12/06 03:14:02;;;;;;;55.07;34.70;;;;;;;9.96;89.66;100211.50;5055126;28;20196;-55
2022/12/06 03:16:34;;;;;;;54.70;36.53;;;;;;;9.93;89.81;100208.84;5057956;28;20195;-56
2022/12/06 03:19:05;;;;;;;54.33;35.40;;;;;;;9.91;89.48;100207.94;5073094;28;20654;-55
2022/12/06 03:21:37;;;;;;;56.07;34.77;;;;;;;9.87;89.85;100203.53;5075208;28;20191;-55
2022/12/06 03:24:09;;;;;;;59.67;37.10;;;;;;;9.91;89.48;100207.94;5074854;28;20194;-55
2022/12/06 03:26:38;;;;;;;61.77;36.07;;;;;;;9.83;89.71;100211.94;5075040;28;20268;-55
2022/12/06 03:29:09;;;;;;;57.80;36.17;;;;;;;9.82;90.38;100204.22;5074792;28;20203;-55
2022/12/06 03:31:38;;;;;;;52.00;34.80;;;;;;;9.73;90.72;100203.94;5074646;28;20196;-55
2022/12/06 03:34:13;;;;;;;59.67;36.67;;;;;;;9.77;90.71;100206.66;5075192;28;20379;-55
2022/12/06 03:36:41;;;;;;;50.40;35.07;;;;;;;9.83;90.69;100201.69;5074621;28;20194;-55
2022/12/06 03:39:09;;;;;;;54.17;34.87;;;;;;;9.84;90.55;100205.13;5074673;28;20195;-55
2022/12/06 03:41:40;;;;;;;57.10;35.40;;;;;;;9.85;89.93;100197.50;5074547;28;20718;-55
2022/12/06 03:44:06;;;;;;;55.50;34.70;;;;;;;9.80;90.32;100196.47;5075057;28;20600;-55
2022/12/06 03:46:37;;;;;;;56.03;34.73;;;;;;;9.81;90.30;100194.75;5058483;28;20231;-55
2022/12/06 03:49:11;;;;;;;57.17;33.80;;;;;;;9.85;90.39;100194.03;5054845;28;20194;-55
2022/12/06 03:51:40;;;;;;;50.80;35.37;;;;;;;9.73;90.06;100160.31;5054698;28;20226;-55
2022/12/06 03:54:08;;;;;;;59.03;34.80;;;;;;;9.84;90.52;100198.31;5054279;28;20601;-55
2022/12/06 03:56:37;;;;;;;55.87;36.07;;;;;;;9.84;90.18;100192.28;5053967;28;20254;-55
2022/12/06 03:59:04;;;;;;;58.33;36.50;;;;;;;9.87;90.27;100194.94;5054256;28;20192;-55
2022/12/06 04:01:31;;;;;;;58.73;35.07;;;;;;;9.90;90.42;100197.63;5053994;28;20653;-53
2022/12/06 04:03:58;;;;;;;60.37;36.53;;;;;;;9.92;90.49;100189.13;5051574;28;20188;-54
2022/12/06 04:06:26;;;;;;;61.77;37.57;;;;;;;9.91;90.58;100191.66;5054018;28;20216;-55
2022/12/06 04:09:50;;;;;;;60.53;36.20;;;;;;;9.91;90.54;100197.69;5066555;28;20199;-54
2022/12/06 04:11:40;;;;;;;65.93;37.63;;;;;;;9.90;90.67;100188.22;5073956;28;20569;-54
2022/12/06 04:14:07;;;;;;;64.17;38.07;;;;;;;9.83;91.02;100191.41;5066662;28;20737;-55
2022/12/06 04:19:17;;;;;;;66.00;39.90;;;;;;;9.65;91.60;100172.03;5034400;28;20192;-55
2022/12/06 04:24:30;;;;;;;64.50;40.40;;;;;;;9.75;91.87;100179.19;5073082;28;20284;-54
2022/12/06 04:28:40;;;;;;;60.20;37.40;;;;;;;9.65;91.65;100160.06;5073625;28;20219;-55
2022/12/06 04:40:47;;;;;;;62.80;38.87;;;;;;;9.78;91.26;100175.00;5071951;28;20676;-54
2022/12/06 04:45:58;;;;;;;62.47;38.40;;;;;;;9.82;91.19;100186.25;5033538;28;20200;-54
2022/12/06 04:48:26;;;;;;;64.07;40.17;;;;;;;9.78;91.07;100187.00;5033232;28;20211;-54
2022/12/06 04:50:53;;;;;;;66.07;39.47;;;;;;;9.76;91.49;100186.94;5033429;28;20196;-55
2022/12/06 04:53:22;;;;;;;60.23;39.10;;;;;;;9.75;91.44;100180.06;5033507;28;20197;-55
2022/12/06 04:55:50;;;;;;;61.97;39.47;;;;;;;9.66;91.40;100166.09;5033151;28;20656;-55
2022/12/06 04:58:17;;;;;;;61.37;39.60;;;;;;;9.76;91.36;100181.81;5049817;28;20196;-55
2022/12/06 05:00:44;;;;;;;60.07;38.33;;;;;;;9.77;91.47;100190.38;5053137;28;20708;-55
2022/12/06 05:03:11;;;;;;;56.57;35.73;;;;;;;9.76;91.74;100186.94;5052996;28;20540;-55
2022/12/06 05:05:38;;;;;;;60.03;37.03;;;;;;;9.69;91.88;100189.28;5053007;28;20199;-55
2022/12/06 05:08:05;;;;;;;62.20;38.03;;;;;;;9.55;92.74;100168.31;5052567;28;20702;-55
2022/12/06 05:10:33;;;;;;;63.77;35.23;;;;;;;9.71;93.22;100192.75;5053009;28;20646;-56
2022/12/06 05:13:01;;;;;;;56.53;34.47;;;;;;;9.71;93.15;100203.88;5052863;28;20192;-56
2022/12/06 05:15:28;;;;;;;55.50;34.53;;;;;;;9.69;92.94;100202.09;5052755;28;20188;-55
2022/12/06 05:17:55;;;;;;;57.63;33.77;;;;;;;9.65;93.06;100202.81;5052695;28;20629;-55
2022/12/06 05:20:22;;;;;;;48.93;32.77;;;;;;;9.61;93.22;100201.88;5053107;28;20192;-55
2022/12/06 05:22:49;;;;;;;48.23;31.90;;;;;;;9.56;93.46;100195.69;5052422;28;20765;-55
2022/12/06 05:25:16;;;;;;;45.90;32.17;;;;;;;9.58;93.29;100199.22;5052662;28;20193;-55
2022/12/06 05:27:44;;;;;;;47.23;29.93;;;;;;;9.54;93.12;100192.22;5052456;28;20215;-55
2022/12/06 05:30:12;;;;;;;46.07;31.27;;;;;;;9.47;92.94;100196.31;5052440;28;20223;-55
2022/12/06 05:32:39;;;;;;;52.50;31.17;;;;;;;9.49;93.39;100202.34;5052310;28;20192;-56
2022/12/06 05:35:06;;;;;;;49.23;32.50;;;;;;;9.53;93.28;100202.44;5052521;28;20669;-56
2022/12/06 05:37:33;;;;;;;51.83;32.20;;;;;;;9.52;93.32;100196.44;5052471;28;20191;-56
2022/12/06 05:40:00;;;;;;;49.27;31.60;;;;;;;9.55;93.40;100193.97;5052448;28;20192;-57
2022/12/06 05:42:27;;;;;;;48.73;31.97;;;;;;;9.54;93.56;100194.78;5052340;28;20257;-55
2022/12/06 05:44:55;;;;;;;52.60;31.97;;;;;;;9.43;93.05;100181.63;5052021;28;20188;-56
2022/12/06 05:47:21;;;;;;;46.90;31.97;;;;;;;9.48;93.55;100194.59;5057402;28;20230;-55
2022/12/06 05:49:50;;;;;;;51.17;33.33;;;;;;;9.51;93.56;100192.13;5072065;28;20187;-55
2022/12/06 05:52:16;;;;;;;51.03;34.27;;;;;;;9.40;93.65;100171.28;5071830;28;20793;-55
2022/12/06 05:54:43;;;;;;;49.87;33.17;;;;;;;9.45;93.75;100191.94;5071881;28;20188;-55
2022/12/06 05:57:10;;;;;;;50.33;31.93;;;;;;;9.53;93.82;100202.44;5063100;28;20183;-55
2022/12/06 05:59:37;;;;;;;54.27;33.77;;;;;;;9.52;94.04;100201.56;5051702;28;20212;-54
2022/12/06 06:02:05;;;;;;;55.83;32.30;;;;;;;9.55;94.22;100211.94;5051797;28;20184;-56
2022/12/06 06:04:32;;;;;;;49.43;32.30;;;;;;;9.58;94.05;100204.34;5051996;28;20563;-55
2022/12/06 06:06:59;;;;;;;51.40;33.63;;;;;;;9.61;93.40;100201.88;5051809;28;20710;-54
2022/12/06 06:09:26;;;;;;;52.87;34.40;;;;;;;9.69;93.44;100205.56;5058302;28;20203;-55
2022/12/06 06:11:54;;;;;;;50.33;32.37;;;;;;;9.58;92.85;100182.94;5051798;28;20184;-57
2022/12/06 06:14:21;;;;;;;48.00;31.73;;;;;;;9.68;92.29;100206.34;5054418;28;20742;-55
2022/12/06 06:16:48;;;;;;;47.90;31.13;;;;;;;9.71;92.05;100208.16;5071454;28;20653;-55
2022/12/06 06:19:16;;;;;;;48.13;31.63;;;;;;;9.72;91.53;100197.94;5071553;28;20672;-55
2022/12/06 06:21:43;;;;;;;50.73;31.60;;;;;;;9.73;91.46;100207.38;5067969;28;20736;-55
2022/12/06 06:24:10;;;;;;;47.77;32.17;;;;;;;9.71;91.10;100193.63;5051404;28;20191;-56
2022/12/06 06:26:37;;;;;;;47.00;30.73;;;;;;;9.71;90.94;100203.00;5051434;28;20242;-56
2022/12/06 06:29:03;;;;;;;47.53;30.27;;;;;;;9.74;90.80;100185.16;5051599;28;20669;-56
2022/12/06 06:31:30;;;;;;;42.43;28.13;;;;;;;9.78;90.41;100192.97;5063168;28;20192;-55
2022/12/06 06:33:57;;;;;;;42.63;29.40;;;;;;;9.80;90.11;100186.22;5073901;28;20191;-54
2022/12/06 06:36:26;;;;;;;45.20;29.73;;;;;;;9.83;90.14;100188.84;5066195;28;20196;-55
2022/12/06 06:38:52;;;;;;;50.37;30.80;;;;;;;9.89;89.42;100190.72;5050437;28;20200;-55
2022/12/06 06:41:19;;;;;;;49.63;32.67;;;;;;;9.92;89.66;100188.25;5049951;28;20211;-56
2022/12/06 06:43:46;;;;;;;49.17;31.03;;;;;;;9.92;89.46;100188.25;5051523;28;20192;-55
2022/12/06 06:46:13;;;;;;;49.50;33.40;;;;;;;9.97;89.62;100192.69;5054969;28;20647;-55
2022/12/06 06:48:40;;;;;;;47.40;32.40;;;;;;;10.01;89.49;100191.97;5053577;28;20228;-55
2022/12/06 06:51:08;;;;;;;52.93;32.90;;;;;;;9.93;89.72;100180.63;5054531;28;20196;-55
2022/12/06 06:53:37;;;;;;;46.77;33.17;;;;;;;10.01;88.96;100185.97;5055519;28;20188;-55
2022/12/06 06:56:04;;;;;;;53.95;37.00;;;;;;;10.16;88.77;100201.00;5049316;28;20510;-55
2022/12/06 06:58:31;;;;;;;49.43;32.77;;;;;;;10.20;88.61;100202.81;5053819;28;20222;-56
2022/12/06 07:01:00;;;;;;;50.53;32.97;;;;;;;10.17;88.20;100189.88;5051609;28;20188;-56
2022/12/06 07:03:28;;;;;;;51.87;32.00;;;;;;;10.26;87.95;100203.00;5053040;28;20204;-56
2022/12/06 07:05:58;;;;;;;50.80;33.23;;;;;;;10.29;87.49;100195.38;5053254;28;20251;-56
2022/12/06 07:08:26;;;;;;;52.77;32.53;;;;;;;10.30;86.99;100195.41;5051127;28;20212;-55
2022/12/06 07:10:54;;;;;;;49.63;32.60;;;;;;;10.36;86.98;100194.72;5049244;28;20192;-55
2022/12/06 07:13:23;;;;;;;51.43;33.30;;;;;;;10.40;86.64;100197.44;5054979;28;20188;-55
2022/12/06 07:15:50;;;;;;;56.43;33.77;;;;;;;10.36;86.18;100194.72;5062812;28;20649;-55
2022/12/06 07:18:18;;;;;;;53.43;32.83;;;;;;;10.35;86.01;100180.16;5075095;28;20194;-55
2022/12/06 07:20:45;;;;;;;55.10;33.07;;;;;;;10.46;86.08;100182.19;5069990;28;20195;-55
2022/12/06 07:23:12;;;;;;;53.63;31.77;;;;;;;10.50;85.42;100185.69;5074660;28;20191;-55
2022/12/06 07:25:39;;;;;;;48.80;31.03;;;;;;;10.61;85.38;100184.28;5075233;28;20199;-55
2022/12/06 07:28:07;;;;;;;52.67;34.20;;;;;;;10.62;84.66;100180.91;5073724;28;20277;-55
2022/12/06 07:30:34;;;;;;;57.70;33.23;;;;;;;10.68;84.75;100178.50;5064921;28;20666;-55
2022/12/06 07:33:01;;;;;;;54.87;33.60;;;;;;;10.78;84.19;100180.47;5059931;28;20202;-55
2022/12/06 07:35:27;;;;;;;47.90;32.63;;;;;;;10.83;83.83;100173.75;5072822;28;20195;-55
2022/12/06 07:37:54;;;;;;;52.13;33.63;;;;;;;10.87;83.07;100183.28;5060768;28;20261;-55
2022/12/06 07:40:21;;;;;;;58.70;34.47;;;;;;;10.90;82.82;100190.22;5070948;28;20203;-55
2022/12/06 07:45:33;;;;;;;49.70;33.37;;;;;;;10.94;82.53;100184.31;5074637;28;20195;-55
2022/12/06 07:48:00;;;;;;;56.00;33.17;;;;;;;10.98;82.77;100189.59;5074141;28;20766;-54
2022/12/06 07:50:27;;;;;;;59.53;34.00;;;;;;;11.05;81.84;100177.72;5074302;28;20195;-55
2022/12/06 07:52:54;;;;;;;50.80;33.10;;;;;;;11.05;82.51;100178.59;5074495;28;20232;-55
2022/12/06 07:55:20;;;;;;;50.33;32.97;;;;;;;11.13;82.00;100183.94;5073255;28;20650;-55
2022/12/06 07:57:47;;;;;;;55.33;35.20;;;;;;;11.16;81.93;100174.59;5073320;28;20442;-55
2022/12/06 08:00:15;;;;;;;52.50;35.57;;;;;;;11.21;80.87;100165.28;5065858;28;20198;-55
2022/12/06 08:02:44;;;;;;;50.73;32.50;;;;;;;11.19;80.04;100176.38;5074111;28;20223;-55
2022/12/06 08:05:12;;;;;;;57.30;34.87;;;;;;;11.17;80.92;100172.91;5074089;28;20242;-56
2022/12/06 08:07:39;;;;;;;51.83;33.87;;;;;;;11.16;80.25;100151.44;5069927;28;20298;-55
2022/12/06 08:10:07;;;;;;;56.33;34.73;;;;;;;11.36;80.28;100174.22;5073360;28;20191;-55
2022/12/06 08:12:34;;;;;;;53.90;35.20;;;;;;;11.43;79.77;100181.22;5074046;28;20183;-55
2022/12/06 08:15:01;;;;;;;55.43;35.43;;;;;;;11.43;79.88;100174.38;5073984;28;20195;-55
2022/12/06 08:17:29;;;;;;;56.43;32.43;;;;;;;11.34;79.76;100156.19;5073663;28;20203;-56
2022/12/06 08:19:57;;;;;;;54.07;33.33;;;;;;;11.46;78.87;100169.31;5073454;28;20261;-55
2022/12/06 08:22:24;;;;;;;52.43;33.47;;;;;;;11.52;79.14;100164.31;5074153;28;20184;-56
2022/12/06 08:24:51;;;;;;;52.50;33.13;;;;;;;11.51;78.55;100167.72;5064183;28;20192;-56
2022/12/06 08:27:17;;;;;;;58.47;34.47;;;;;;;11.55;78.57;100166.97;5052868;28;20780;-56
2022/12/06 08:29:45;;;;;;;55.10;34.80;;;;;;;11.59;78.98;100157.63;5052629;28;20728;-57
2022/12/06 08:32:12;;;;;;;56.83;34.07;;;;;;;11.61;78.83;100161.09;5052876;28;20180;-56
2022/12/06 08:34:39;;;;;;;55.80;34.43;;;;;;;11.45;78.63;100157.31;5055818;28;20191;-56
2022/12/06 08:37:07;;;;;;;62.70;36.43;;;;;;;11.51;78.75;100152.28;5051399;28;20248;-58
2022/12/06 08:39:34;;;;;;;56.27;36.63;;;;;;;11.51;78.61;100143.72;5062769;28;20212;-56
2022/12/06 08:42:02;;;;;;;57.97;34.80;;;;;;;11.37;77.70;100096.19;5060327;28;20189;-57
2022/12/06 08:44:30;;;;;;;66.67;36.70;;;;;;;11.57;78.30;100134.41;5053333;28;20651;-56
2022/12/06 08:46:59;;;;;;;66.77;38.07;;;;;;;11.70;77.82;100145.88;5044092;28;20194;-57
2022/12/06 08:49:28;;;;;;;66.90;39.33;;;;;;;11.66;77.34;100106.31;5053241;28;20192;-56
2022/12/06 08:51:55;;;;;;;64.70;38.20;;;;;;;11.87;77.26;100135.97;5053090;28;20274;-58
2022/12/06 08:54:25;;;;;;;69.10;36.83;;;;;;;11.75;76.60;100131.41;5050648;28;20196;-56
2022/12/06 08:56:52;;;;;;;59.00;38.17;;;;;;;11.76;76.51;100131.44;5047463;28;20238;-56
2022/12/06 08:59:19;;;;;;;64.57;38.67;;;;;;;11.77;76.83;100132.31;5052148;28;20200;-56
2022/12/06 09:01:47;;;;;;;60.50;38.20;;;;;;;11.79;76.02;100131.50;5052223;28;20207;-56
2022/12/06 09:04:14;;;;;;;61.47;38.67;;;;;;;11.83;76.23;100132.44;5052323;28;20245;-56
2022/12/06 09:06:42;;;;;;;56.53;38.03;;;;;;;11.83;75.89;100127.28;5051717;28;20193;-56
2022/12/06 09:09:11;;;;;;;64.20;38.53;;;;;;;11.91;76.23;100115.44;5052007;28;20224;-56
2022/12/06 09:11:40;;;;;;;64.40;39.17;;;;;;;11.93;76.09;100118.03;5051920;28;20184;-56
2022/12/06 09:14:09;;;;;;;67.70;39.20;;;;;;;11.70;76.49;100118.41;5051998;28;20180;-56
2022/12/06 09:16:35;;;;;;;65.33;39.23;;;;;;;11.73;76.63;100117.59;5052258;28;20188;-56
2022/12/06 09:19:02;;;;;;;61.97;38.47;;;;;;;11.60;77.19;100116.44;5052040;28;20188;-56
2022/12/06 09:21:31;;;;;;;64.00;40.63;;;;;;;11.42;77.57;100107.47;5049632;28;20194;-56
2022/12/06 09:23:59;;;;;;;66.07;39.17;;;;;;;11.31;78.75;100101.19;5051993;28;20188;-57
2022/12/06 09:26:27;;;;;;;62.70;38.80;;;;;;;11.25;79.45;100097.66;5051730;28;20196;-56
2022/12/06 09:28:56;;;;;;;64.50;38.43;;;;;;;11.33;78.75;100100.41;5049325;28;20216;-56
2022/12/06 09:31:23;;;;;;;62.53;35.80;;;;;;;11.33;78.18;100100.41;5051733;28;20659;-57
2022/12/06 09:33:50;;;;;;;57.50;35.93;;;;;;;11.43;78.34;100094.63;5051493;28;20185;-56
2022/12/06 09:36:21;;;;;;;57.13;34.87;;;;;;;11.51;77.46;100098.22;5051307;28;20593;-56
2022/12/06 09:38:53;;;;;;;50.83;32.97;;;;;;;11.53;77.58;100088.00;5050644;28;20203;-56
2022/12/06 09:41:35;;;;;;;53.87;34.60;;;;;;;11.62;76.96;100090.78;5051181;28;20732;-56
2022/12/06 09:44:22;;;;;;;58.73;36.70;;;;;;;11.58;76.81;100065.78;5051017;28;20210;-57
2022/12/06 09:47:02;;;;;;;52.97;33.40;;;;;;;11.50;76.75;100081.06;5049783;28;20196;-55
2022/12/06 09:49:31;;;;;;;58.03;34.17;;;;;;;11.39;77.64;100072.25;5052144;28;20211;-55
2022/12/06 09:52:33;;;;;;;51.53;31.83;;;;;;;11.50;77.48;100065.63;5051922;28;20232;-56
2022/12/06 09:55:28;;;;;;;54.13;33.27;;;;;;;11.44;77.05;100062.03;5052138;28;20187;-56
2022/12/06 09:58:03;;;;;;;53.90;35.10;;;;;;;11.11;77.15;99979.88;5051688;28;20682;-56
2022/12/06 10:00:43;;;;;;;57.73;35.53;;;;;;;11.56;77.41;100054.59;5052651;28;20184;-55
2022/12/06 10:03:48;;;;;;;58.40;34.37;;;;;;;11.71;76.92;100057.50;5051808;28;20681;-55
2022/12/06 10:06:18;;;;;;;52.60;33.03;;;;;;;11.76;76.05;100054.19;5051766;28;20191;-56
2022/12/06 10:09:08;;;;;;;50.93;32.33;;;;;;;11.66;75.82;100049.66;5051606;28;20219;-56
2022/12/06 10:11:47;;;;;;;51.13;33.07;;;;;;;11.48;77.34;100045.84;5051978;28;20195;-55
2022/12/06 10:14:29;;;;;;;52.03;34.00;;;;;;;11.49;77.69;100012.41;5051844;28;20195;-56
2022/12/06 10:17:06;;;;;;;61.90;32.37;;;;;;;11.72;76.79;100024.09;5051679;28;20215;-56
2022/12/06 10:19:44;;;;;;;55.10;35.73;;;;;;;11.78;76.55;100018.19;5053014;28;20535;-56
2022/12/06 10:22:19;;;;;;;55.23;33.80;;;;;;;11.76;76.81;100012.13;5056101;28;20192;-56
2022/12/06 10:24:59;;;;;;;52.83;33.60;;;;;;;11.87;76.71;100009.78;5055806;28;20653;-56
2022/12/06 10:27:34;;;;;;;45.83;31.47;;;;;;;11.95;76.61;100006.50;5055428;28;20253;-56
2022/12/06 10:30:04;;;;;;;52.60;31.97;;;;;;;11.95;76.31;100001.34;5056033;28;20183;-56
2022/12/06 10:32:47;;;;;;;50.97;32.53;;;;;;;12.11;75.84;100003.38;5056127;28;20192;-56
2022/12/06 10:35:21;;;;;;;51.27;31.20;;;;;;;12.17;75.20;99997.44;5055740;28;20188;-55
2022/12/06 10:37:59;;;;;;;49.77;32.53;;;;;;;12.17;74.97;99993.16;5055489;28;20207;-55
2022/12/06 10:40:33;;;;;;;48.87;30.47;;;;;;;12.26;74.28;99987.31;5055225;28;20192;-56
2022/12/06 10:43:09;;;;;;;54.57;31.73;;;;;;;12.30;74.34;99973.66;5055038;28;20200;-56
2022/12/06 10:48:36;;;;;;;58.37;35.00;;;;;;;12.37;73.92;99975.47;5055266;28;20223;-56
2022/12/06 10:51:09;;;;;;;58.87;35.80;;;;;;;12.36;74.46;99971.19;5054599;28;20245;-56
2022/12/06 10:53:45;;;;;;;57.10;36.50;;;;;;;12.32;74.33;99961.66;5055380;28;20210;-55
2022/12/06 10:56:18;;;;;;;69.00;37.20;;;;;;;12.43;74.17;99968.72;5054987;28;20192;-56
2022/12/06 10:58:51;;;;;;;63.13;36.53;;;;;;;12.38;74.10;99952.34;5053080;28;20659;-55
2022/12/06 11:01:22;;;;;;;56.23;34.80;;;;;;;12.19;73.89;99926.25;5053367;28;20180;-56
2022/12/06 11:03:58;;;;;;;52.67;32.57;;;;;;;12.32;73.35;99956.50;5054168;28;20199;-55
2022/12/06 11:06:32;;;;;;;59.43;33.63;;;;;;;12.35;73.77;99959.13;5052199;28;20176;-55
2022/12/06 11:09:05;;;;;;;56.57;33.93;;;;;;;12.41;73.68;99954.94;5053719;28;20764;-56
2022/12/06 11:11:35;;;;;;;61.40;35.83;;;;;;;12.43;73.76;99957.56;5054240;28;20187;-55
2022/12/06 11:14:09;;;;;;;59.77;39.93;;;;;;;12.49;73.65;99957.66;5051368;28;20185;-55
2022/12/06 11:16:40;;;;;;;62.23;40.83;;;;;;;12.53;73.67;99948.22;5054026;28;20256;-57
2022/12/06 11:19:20;;;;;;;61.60;33.60;;;;;;;12.56;73.71;99935.41;5052378;28;20622;-55
2022/12/06 11:21:53;;;;;;;51.33;33.50;;;;;;;12.53;72.93;99932.78;5046818;28;20196;-56
2022/12/06 11:24:26;;;;;;;60.33;34.67;;;;;;;12.56;73.57;99919.94;5055092;28;20250;-57
2022/12/06 11:27:01;;;;;;;57.97;34.67;;;;;;;12.53;73.70;99913.03;5054201;28;20678;-57
2022/12/06 11:29:28;;;;;;;56.63;35.43;;;;;;;12.58;73.77;99915.69;5054365;28;20223;-55
2022/12/06 11:31:59;;;;;;;68.93;34.70;;;;;;;12.61;72.80;99919.16;5052437;28;20214;-55
2022/12/06 11:34:33;;;;;;;58.23;36.13;;;;;;;12.67;73.14;99916.69;5043601;28;20662;-55
2022/12/06 11:37:03;;;;;;;56.33;35.17;;;;;;;12.63;73.13;99911.47;5053526;28;20716;-55
2022/12/06 11:39:31;;;;;;;42.47;29.23;;;;;;;12.52;72.92;99910.44;5052717;28;20192;-56
2022/12/06 11:42:02;;;;;;;50.13;30.23;;;;;;;12.46;73.10;99915.50;5051480;28;20200;-55
2022/12/06 11:44:37;;;;;;;43.60;28.33;;;;;;;11.83;74.33;99921.31;5054294;28;20207;-55
2022/12/06 11:47:06;;;;;;;47.70;27.93;;;;;;;11.87;75.06;99927.41;5052597;28;20199;-56
2022/12/06 11:49:38;;;;;;;45.10;28.43;;;;;;;11.91;74.46;99922.31;5052382;28;20212;-56
2022/12/06 11:52:10;;;;;;;49.10;31.20;;;;;;;12.10;74.09;99919.22;5050545;28;20215;-56